Terminal Aerodrome Forecast
Issued by NWS Louisville, KY

Home | Current Version | Previous Version | Text Only | Print | Product List | Glossary On
Versions: 1 2 3 4 5 6 7 8 9 10 11 12 13 14
000
FTUS43 KLMK 281300 AAA
TAFSDF
TAF AMD
KSDF 281316Z 2813/2918 33010G15KT P6SM BKN025
     FM281600 32013G18KT P6SM BKN035
     FM290000 34008KT P6SM FEW250=

USA.gov is the U.S. government's official web portal to all federal, state and local government web resources and services.